Historyczne dane pomiarowe

Dodano dane terminowe – wersja testowa.

Dane z okresu 1951-2019

Wersja bazy: 1.34 [2019-03-16, lista zmian], aktualizacja planowana na 2019-04-15

Dane meteo z obszaru Polski uzyskane na podstawie danych udostępnionych przez Instytut Meteorologii i Gospodarki Wodnej – Państwowy Instytut Badawczy.

 

Wybierz Datę:    

       

TemperaturaWilgotnośćWiatrCiśnienieOpadyŚniegCzas trwania zjawisk
 Stacja t tx tn tng RH VA  wxwx mslp ppp RRR   cm mm wxwxwxwxwxwxwx
1961-08-14 14.6 19.3 8.2--- 3.3 2.0---- 0.0------------
1961-08-13 13.8 20.3 12.1--- 6.0 2.3---- 0.0------------
1961-08-12 19.5 21.7 15.2--- 7.0 1.0---- 21.2------------
1961-08-11 19.3 23.3 14.2--- 7.3 2.0---- 4.2------------
1961-08-10 20.4 24.8 14.2--- 6.3 1.3---- 5.4------------
1961-08-09 20.7 26.0 6.6--- 7.3 1.0---- 0.0------------
1961-08-08 17.9 21.8 6.5--- 6.7 0.7---- 0.4------------
1961-08-07 18.3 20.3 7.6--- 8.0 2.0---- 2.1------------
1961-08-06 20.7 28.8 7.0--- 4.3 2.3---- 11.3------------
1961-08-05 16.6 22.1 6.8--- 5.7 2.3---- 0.0------------
1961-08-04 16.2 18.8 7.0--- 6.3 1.0---- 4.1------------
1961-08-03 16.2 19.6 14.6--- 6.0 1.0---- 0.0------------
1961-08-02 18.7 23.5 8.2--- 7.0 1.7---- 0.0------------
1961-08-01 13.0 14.3 10.7--- 8.0 3.3---- 0.3------------
1961-07-31 14.2 16.5 10.7--- 7.7 2.0---- 3.0------------
1961-07-30 13.1 15.2 10.7--- 8.0 2.0---- 17.7------------
1961-07-29 14.3 18.3 12.7--- 8.0 1.3---- 8.1------------
1961-07-28 15.8 18.8 12.3--- 8.0 1.0---- 0.0------------
1961-07-27 18.6 23.4 15.1--- 7.0 2.3---- 0.0------------
1961-07-26 15.4 18.0 11.1--- 6.0 1.7---- 0.0------------
1961-07-25 15.1 17.8 8.4--- 6.3 1.7---- 0.0------------
1961-07-24 15.1 19.1 10.1--- 6.0 1.7---- 0.0------------
1961-07-23 13.7 16.7 11.8--- 7.7 2.3---- 0.0------------
1961-07-22 15.1 18.8 9.1--- 8.0 2.0---- 2.5------------
1961-07-21 17.3 19.9 9.1--- 7.7 2.7---- 9.0------------
1961-07-20 13.6 20.3 8.6--- 4.7 1.3---- 0.0------------
1961-07-19 13.8 20.8 8.7--- 5.3 1.3---- 0.0------------
1961-07-18 14.1 19.1 8.6--- 7.0 2.0---- 0.0------------
1961-07-17 16.2 22.7 8.4--- 8.0 0.3---- 0.0------------
1961-07-16 14.8 18.4 9.3--- 8.0 0.3---- 22.0------------
1961-07-15 15.6 21.9 12.6--- 6.7 0.7---- 0.2------------
1961-07-14 14.4 25.0 13.1--- 7.3 2.3---- 0.0------------
1961-07-13 24.1 28.9 11.2--- 5.0 2.3---- 1.5------------
1961-07-12 18.8 23.1 11.3--- 4.3 0.3---- 0.0------------
1961-07-11 14.9 20.7 8.8--- 4.3 1.0---- 0.0------------
1961-07-10 14.6 19.6 10.7--- 8.0 2.7---- 0.0------------
1961-07-09 16.5 23.8 6.6--- 5.7 3.7---- 0.0------------
1961-07-08 14.0 18.4 4.6--- 5.7 2.0---- 0.0------------
1961-07-07 12.3 17.7 6.0--- 4.7 2.0---- 0.0------------
1961-07-06 11.9 17.1 6.1--- 7.3 2.0---- 0.0------------
1961-07-05 12.6 18.0 10.0--- 7.3 2.3---- 0.0------------
1961-07-04 19.8 27.7 11.5--- 6.7 1.0---- 1.7------------
1961-07-03 19.4 30.8 12.2--- 5.3 1.7---- 0.0------------
1961-07-02 21.5 29.3 11.2--- 2.3 1.0---- 0.0------------
1961-07-01 18.7 25.7 9.8--- 4.0 1.0---- 0.0------------
1961-06-30 18.3 24.9 9.1--- 4.3 1.0---- 0.0------------
1961-06-29 14.2 17.4 9.1--- 4.3 2.0---- 0.0------------
1961-06-28 11.9 18.8 10.6--- 6.7 2.0---- 0.9------------
1961-06-27 20.1 31.7 13.6--- 5.3 3.7---- 2.8------------
1961-06-26 21.0 27.1 13.0--- 4.0 2.7---- 0.0------------
1961-06-25 17.0 26.3 13.0--- 4.0 4.0---- 0.0------------
1961-06-24 16.8 22.7 11.9--- 4.3 2.3---- 0.0------------
1961-06-23 16.4 23.9 12.7--- 7.0 3.7---- 0.0------------
1961-06-22 15.2 20.9 8.9--- 4.7 1.7---- 2.6------------
1961-06-21 14.5 21.8 6.0--- 6.3 2.7---- 0.9------------
1961-06-20 13.7 18.9 8.6--- 3.3 2.3---- 0.0------------
1961-06-19 15.6 22.1 12.2--- 4.7 1.7---- 0.0------------
1961-06-18 18.9 25.3 14.5--- 6.3 2.3---- 0.0------------
1961-06-17 15.8 22.3 10.1--- 7.7 2.0---- 0.0------------
1961-06-16 13.2 15.1 11.5--- 8.0 4.0---- 0.0------------
874.8 ms

 

Źródłem pochodzenia danych jest Instytut Meteorologii i Gospodarki Wodnej – Państwowy Instytut Badawczy. Dane Instytutu Meteorologii i Gospodarki Wodnej – Państwowego Instytutu Badawczego zostały przetworzone.

Dane źródłowe można odnaleźć na stronie https://dane.imgw.pl